Time;durP1;ratioP1;P1;durP2;ratioP2;P2;SDS_P1;SDS_P2;PMS_P1;PMS_P2;Temp;Humidity;BMP_temperature;BMP_pressure;BME280_temperature;BME280_humidity;BME280_pressure;Samples;Min_cycle;Max_cycle;Signal;HPM_P1;HPM_P2
2021/12/05 00:22:10;;;;;;;24.80;8.40;;;4.70;99.90;;;;;;6308520;22;20467;-82
2021/12/05 00:24:58;;;;;;;18.53;8.40;;;4.00;99.90;;;;;;6307167;22;20379;-83
2021/12/05 00:27:47;;;;;;;22.67;7.30;;;3.80;99.90;;;;;;6286167;22;20022;-81
2021/12/05 00:33:42;;;;;;;16.07;7.40;;;4.70;99.90;;;;;;6285283;22;20077;-82
2021/12/05 00:48:37;;;;;;;18.87;6.73;;;3.80;99.90;;;;;;6308146;22;20072;-81
2021/12/05 00:52:12;;;;;;;14.80;6.33;;;3.80;99.90;;;;;;6307963;22;20093;-82
2021/12/05 01:14:48;;;;;;;13.63;6.25;;;4.00;99.90;;;;;;6307459;22;19909;-82
2021/12/05 01:17:42;;;;;;;17.20;6.90;;;3.90;99.90;;;;;;6306250;22;20023;-82
2021/12/05 01:20:28;;;;;;;;;;;3.70;99.90;;;;;;6307863;22;20451;-82
2021/12/05 01:26:25;;;;;;;16.80;6.73;;;3.70;99.90;;;;;;6307383;22;20533;-86
2021/12/05 02:10:56;;;;;;;19.70;8.00;;;4.00;99.90;;;;;;6306784;22;20018;-81
2021/12/05 02:46:21;;;;;;;12.33;6.60;;;4.10;99.90;;;;;;6307069;22;20023;-82
2021/12/05 02:49:09;;;;;;;14.82;6.75;;;3.90;99.90;;;;;;6306984;22;20014;-82
2021/12/05 02:52:00;;;;;;;14.80;6.47;;;4.00;99.90;;;;;;6305496;22;20060;-82
2021/12/05 02:54:50;;;;;;;17.57;7.40;;;4.00;99.90;;;;;;6284576;22;20498;-82
2021/12/05 03:00:45;;;;;;;15.75;7.93;;;4.50;99.90;;;;;;6306927;22;20072;-85
2021/12/05 03:03:32;;;;;;;18.20;7.83;;;3.90;99.90;;;;;;6306489;22;20064;-84
2021/12/05 03:06:23;;;;;;;22.90;8.67;;;4.00;99.90;;;;;;6305650;22;20345;-82
2021/12/05 03:09:15;;;;;;;16.07;7.80;;;4.40;99.90;;;;;;6305854;22;20371;-81
2021/12/05 03:12:00;;;;;;;21.83;9.00;;;4.30;99.90;;;;;;6306886;22;20014;-81
2021/12/05 03:14:49;;;;;;;18.83;9.03;;;4.00;99.90;;;;;;6283517;22;20112;-81
2021/12/05 03:17:34;;;;;;;17.17;8.30;;;4.00;99.90;;;;;;6306111;22;20340;-82
2021/12/05 03:20:19;;;;;;;18.97;8.97;;;4.00;99.90;;;;;;6305384;22;20065;-81
2021/12/05 03:23:03;;;;;;;21.93;9.30;;;4.00;99.90;;;;;;6306838;22;20057;-81
2021/12/05 03:25:48;;;;;;;21.83;9.80;;;4.00;99.90;;;;;;6283014;22;20018;-81
2021/12/05 03:28:32;;;;;;;25.43;11.10;;;4.00;99.90;;;;;;6306282;22;20464;-84
2021/12/05 03:31:17;;;;;;;25.30;10.33;;;4.60;99.90;;;;;;6305645;22;20444;-81
2021/12/05 03:34:05;;;;;;;22.00;10.83;;;4.00;99.90;;;;;;6305646;22;20061;-81
2021/12/05 03:36:53;;;;;;;22.63;12.03;;;4.00;99.90;;;;;;6304706;22;20049;-81
2021/12/05 03:39:37;;;;;;;26.93;11.73;;;4.00;99.90;;;;;;6306077;22;20019;-82
2021/12/05 03:42:22;;;;;;;27.87;11.20;;;4.00;99.90;;;;;;6306650;22;20093;-81
2021/12/05 03:45:09;;;;;;;;;;;4.40;99.90;;;;;;6305902;22;20366;-82
2021/12/05 03:47:56;;;;;;;30.53;12.47;;;4.00;99.90;;;;;;6306227;22;20456;-81
2021/12/05 03:50:41;;;;;;;20.27;10.57;;;4.00;99.90;;;;;;6306004;22;20423;-82
2021/12/05 03:53:25;;;;;;;24.00;12.10;;;4.00;99.90;;;;;;6306896;22;20018;-83
2021/12/05 03:56:11;;;;;;;27.90;12.20;;;4.00;99.90;;;;;;6308640;22;20049;-81
2021/12/05 03:58:55;;;;;;;33.72;11.65;;;4.00;99.90;;;;;;6306761;22;20019;-81
2021/12/05 04:01:40;;;;;;;32.67;13.83;;;4.30;99.90;;;;;;6308029;22;20100;-82
2021/12/05 04:04:25;;;;;;;32.97;12.53;;;4.00;99.90;;;;;;6307463;22;20045;-81
2021/12/05 04:07:13;;;;;;;33.03;12.07;;;4.40;99.90;;;;;;6307606;22;20018;-81
2021/12/05 04:09:57;;;;;;;26.03;11.63;;;5.00;99.90;;;;;;6306832;22;20568;-82
2021/12/05 04:12:41;;;;;;;;;;;4.00;99.90;;;;;;6307135;22;20014;-82
2021/12/05 04:15:25;;;;;;;29.08;13.75;;;4.30;99.90;;;;;;6308619;22;19910;-81
2021/12/05 04:18:10;;;;;;;28.25;11.45;;;3.90;99.90;;;;;;6307115;22;20018;-82
2021/12/05 04:20:55;;;;;;;25.53;12.27;;;3.90;99.90;;;;;;6306554;22;20023;-81
2021/12/05 04:23:39;;;;;;;32.33;12.00;;;3.90;99.90;;;;;;6306685;22;20483;-84
2021/12/05 04:26:26;;;;;;;23.57;12.00;;;4.10;99.90;;;;;;6307054;22;20017;-81
2021/12/05 04:29:11;;;;;;;27.80;12.20;;;3.90;99.90;;;;;;6285435;22;20037;-81
2021/12/05 04:31:55;;;;;;;27.83;10.73;;;3.90;99.90;;;;;;6307676;22;20041;-82
2021/12/05 04:34:40;;;;;;;22.87;10.73;;;4.50;99.90;;;;;;6306681;22;20117;-84
2021/12/05 04:37:24;;;;;;;30.47;11.47;;;4.30;99.90;;;;;;6306787;22;20472;-81
2021/12/05 04:40:10;;;;;;;21.20;10.33;;;3.90;99.90;;;;;;6285029;22;20080;-81
2021/12/05 04:42:54;;;;;;;24.80;10.52;;;3.80;99.90;;;;;;6306453;22;20455;-81
2021/12/05 04:45:38;;;;;;;;;;;4.10;99.90;;;;;;6308711;22;20030;-82
2021/12/05 04:48:23;;;;;;;28.90;10.63;;;3.70;99.90;;;;;;6306720;22;20331;-81
2021/12/05 04:51:08;;;;;;;25.83;10.47;;;3.80;99.90;;;;;;6307862;22;20088;-81
2021/12/05 04:53:53;;;;;;;26.87;9.13;;;3.80;99.90;;;;;;6284591;22;20018;-81
2021/12/05 04:56:38;;;;;;;19.07;9.93;;;3.70;99.90;;;;;;6285039;22;20022;-82
2021/12/05 04:59:24;;;;;;;22.57;10.00;;;4.10;99.90;;;;;;6306810;22;20345;-82
2021/12/05 05:02:08;;;;;;;21.83;9.17;;;3.70;99.90;;;;;;6306565;22;20109;-81
2021/12/05 05:04:54;;;;;;;20.73;9.57;;;4.00;99.90;;;;;;6284015;22;20013;-81
2021/12/05 05:07:40;;;;;;;25.63;8.90;;;4.20;99.90;;;;;;6306883;22;20349;-81
2021/12/05 05:10:28;;;;;;;21.60;8.70;;;3.60;99.90;;;;;;6307953;22;20014;-81
2021/12/05 05:13:12;;;;;;;23.40;8.30;;;4.50;99.90;;;;;;6308166;22;20478;-81
2021/12/05 05:15:57;;;;;;;18.90;8.23;;;3.60;99.90;;;;;;6306188;22;20064;-81
2021/12/05 05:18:48;;;;;;;24.40;7.80;;;4.10;99.90;;;;;;6284755;22;20022;-81
2021/12/05 05:51:11;;;;;;;20.67;7.33;;;3.50;99.90;;;;;;6306963;22;20041;-81
2021/12/05 05:53:56;;;;;;;19.83;7.03;;;3.40;99.90;;;;;;6283903;22;20487;-82
2021/12/05 05:56:43;;;;;;;19.27;6.70;;;3.40;99.90;;;;;;6306074;22;20018;-81
2021/12/05 05:59:38;;;;;;;20.77;6.40;;;3.30;99.90;;;;;;6307457;22;20023;-81
2021/12/05 06:05:27;;;;;;;23.07;7.23;;;3.80;99.90;;;;;;6306522;22;20054;-81
2021/12/05 06:08:12;;;;;;;19.03;6.07;;;3.70;99.90;;;;;;6306891;22;20010;-81
2021/12/05 06:11:00;;;;;;;18.80;7.27;;;3.20;99.90;;;;;;6305510;22;20018;-81
2021/12/05 06:13:45;;;;;;;26.23;7.73;;;3.60;99.90;;;;;;6306001;22;20014;-81
2021/12/05 06:16:30;;;;;;;19.83;7.07;;;3.60;99.90;;;;;;6283934;22;20045;-81
2021/12/05 06:19:14;;;;;;;25.67;6.90;;;3.20;99.90;;;;;;6283543;22;20018;-81
2021/12/05 06:21:58;;;;;;;13.17;6.43;;;3.20;99.90;;;;;;6283608;22;20017;-81
2021/12/05 06:24:42;;;;;;;24.23;7.97;;;3.70;99.90;;;;;;6284224;22;20022;-81
2021/12/05 06:27:27;;;;;;;24.63;7.10;;;3.20;99.90;;;;;;6305867;22;20021;-81
2021/12/05 06:30:20;;;;;;;15.93;6.97;;;4.20;99.90;;;;;;6306575;22;20019;-81
2021/12/05 06:47:49;;;;;;;12.90;5.50;;;3.20;99.90;;;;;;6307052;22;20033;-82
2021/12/05 06:50:33;;;;;;;22.17;7.17;;;4.20;99.90;;;;;;6306645;22;20068;-81
2021/12/05 06:53:17;;;;;;;19.37;6.50;;;3.10;99.90;;;;;;6305084;22;20022;-81
2021/12/05 06:56:02;;;;;;;24.63;6.82;;;3.20;99.90;;;;;;6305068;22;20041;-82
2021/12/05 06:58:47;;;;;;;18.43;7.53;;;3.20;99.90;;;;;;6306933;22;20049;-81
2021/12/05 07:01:31;;;;;;;17.67;6.63;;;3.20;99.90;;;;;;6305308;22;20018;-81
2021/12/05 07:04:49;;;;;;;20.87;7.17;;;3.20;99.90;;;;;;6306416;22;20013;-81
2021/12/05 07:07:26;;;;;;;21.07;7.13;;;3.20;99.90;;;;;;6305393;22;20077;-82
2021/12/05 07:10:13;;;;;;;18.23;6.87;;;3.80;99.90;;;;;;6283973;22;20102;-81
2021/12/05 07:18:49;;;;;;;19.83;7.00;;;3.30;99.90;;;;;;6305440;22;20026;-81
2021/12/05 07:21:40;;;;;;;16.57;7.17;;;3.30;99.90;;;;;;6305766;22;20022;-81
2021/12/05 07:24:49;;;;;;;23.87;7.37;;;3.30;99.90;;;;;;6284460;22;20018;-81
2021/12/05 07:42:42;;;;;;;17.87;8.03;;;3.40;99.90;;;;;;6308724;22;20023;-81
2021/12/05 07:45:37;;;;;;;19.57;9.63;;;3.40;99.90;;;;;;6285036;22;20046;-82
2021/12/05 07:48:27;;;;;;;23.33;9.73;;;3.60;99.90;;;;;;6308162;22;20049;-81
2021/12/05 07:57:31;;;;;;;20.67;8.80;;;3.60;99.90;;;;;;6213263;23;20023;-81
2021/12/05 08:00:25;;;;;;;25.33;8.33;;;4.10;99.90;;;;;;6286412;22;20018;-81
2021/12/05 08:15:27;;;;;;;22.43;9.37;;;3.50;99.90;;;;;;6307826;22;20022;-80
2021/12/05 08:18:12;;;;;;;20.63;9.50;;;3.60;99.90;;;;;;6306520;22;20064;-81
2021/12/05 08:20:58;;;;;;;21.03;9.83;;;3.60;99.90;;;;;;6307189;22;20030;-80
2021/12/05 08:23:45;;;;;;;22.90;9.97;;;4.10;99.90;;;;;;6307209;22;20468;-81
2021/12/05 08:26:33;;;;;;;24.83;8.30;;;3.60;99.90;;;;;;6306523;22;20082;-80
2021/12/05 08:29:23;;;;;;;23.00;9.33;;;4.10;99.90;;;;;;6307707;22;20017;-81
2021/12/05 08:32:22;;;;;;;20.83;9.10;;;3.60;99.90;;;;;;6286259;22;20064;-80
2021/12/05 08:35:18;;;;;;;24.07;10.53;;;3.70;99.90;;;;;;6269498;22;20054;-82
2021/12/05 09:26:29;;;;;;;21.25;10.55;;;4.10;99.90;;;;;;6307813;22;20069;-80
2021/12/05 10:03:03;;;;;;;;;;;4.50;99.90;;;;;;6307369;22;20018;-81
2021/12/05 10:09:05;;;;;;;21.70;9.65;;;4.40;99.90;;;;;;6307257;22;20025;-81
2021/12/05 10:15:25;;;;;;;16.77;8.10;;;4.50;99.90;;;;;;6307264;22;20090;-81
2021/12/05 10:36:23;;;;;;;18.57;8.87;;;4.50;99.90;;;;;;6305757;22;20050;-81
2021/12/05 10:39:11;;;;;;;20.33;8.75;;;4.50;99.90;;;;;;6285635;22;20073;-81
2021/12/05 10:42:11;;;;;;;15.48;7.70;;;4.50;99.90;;;;;;6305994;22;20094;-81
2021/12/05 10:44:55;;;;;;;12.30;7.80;;;4.50;99.90;;;;;;6268853;22;20014;-81
2021/12/05 10:47:47;;;;;;;22.40;10.40;;;4.60;99.90;;;;;;6305159;22;20022;-81
2021/12/05 10:50:40;;;;;;;15.93;8.00;;;4.70;99.90;;;;;;6306518;22;20344;-82
2021/12/05 10:53:30;;;;;;;17.97;8.63;;;4.60;99.90;;;;;;6306965;22;20026;-80
2021/12/05 10:56:47;;;;;;;16.38;7.45;;;4.60;99.90;;;;;;6306817;22;20229;-81
2021/12/05 10:59:38;;;;;;;18.30;8.07;;;4.80;99.90;;;;;;6305127;22;20021;-81
2021/12/05 11:02:26;;;;;;;17.93;7.93;;;4.60;99.90;;;;;;6306533;22;20382;-80
2021/12/05 11:05:10;;;;;;;17.20;7.75;;;4.70;99.90;;;;;;6284526;22;20057;-80
2021/12/05 11:07:55;;;;;;;17.60;7.50;;;5.00;99.90;;;;;;6284213;22;20022;-80
2021/12/05 11:10:43;;;;;;;;;;;4.70;99.90;;;;;;6306764;22;20018;-80
2021/12/05 11:13:28;;;;;;;16.02;7.30;;;4.70;99.90;;;;;;6305540;22;19937;-81
2021/12/05 11:16:48;;;;;;;15.65;6.80;;;4.80;99.90;;;;;;6284171;22;20015;-80
2021/12/05 11:19:42;;;;;;;15.35;7.22;;;4.70;99.90;;;;;;6305034;22;20022;-81
2021/12/05 11:22:30;;;;;;;18.17;7.13;;;4.70;99.90;;;;;;6306835;22;20011;-80
2021/12/05 11:25:16;;;;;;;16.90;7.45;;;4.80;99.90;;;;;;6306808;22;20252;-81
2021/12/05 11:28:03;;;;;;;16.45;7.65;;;4.90;99.90;;;;;;6306695;22;20391;-81
2021/12/05 11:30:47;;;;;;;13.57;6.97;;;4.80;99.90;;;;;;6283685;22;20059;-80
2021/12/05 11:33:43;;;;;;;14.93;7.30;;;5.40;99.90;;;;;;6283553;22;20017;-84
2021/12/05 11:36:32;;;;;;;13.70;8.02;;;5.50;99.90;;;;;;6306657;22;20380;-80
2021/12/05 11:39:25;;;;;;;18.80;7.50;;;5.00;99.90;;;;;;6305431;22;20065;-80
2021/12/05 11:42:21;;;;;;;13.38;6.65;;;4.90;99.90;;;;;;6306679;22;20037;-80
2021/12/05 11:45:06;;;;;;;12.57;6.22;;;5.10;99.90;;;;;;6306693;22;20345;-80
2021/12/05 11:47:51;;;;;;;15.32;6.72;;;4.90;99.90;;;;;;6283057;22;20514;-81
2021/12/05 11:50:37;;;;;;;13.73;6.88;;;4.90;99.90;;;;;;6304859;22;20076;-81
2021/12/05 11:53:44;;;;;;;15.52;7.22;;;4.90;99.90;;;;;;6305436;22;20120;-80
2021/12/05 11:56:31;;;;;;;13.80;7.47;;;5.00;99.90;;;;;;6305494;22;20349;-80
2021/12/05 11:59:33;;;;;;;13.13;6.50;;;5.00;99.90;;;;;;6306547;22;20464;-81
2021/12/05 12:02:34;;;;;;;18.30;6.43;;;5.00;99.90;;;;;;6306634;22;20015;-80
2021/12/05 12:05:28;;;;;;;14.52;7.30;;;4.90;99.90;;;;;;6306596;22;20464;-81
2021/12/05 12:08:12;;;;;;;20.48;8.85;;;5.00;99.90;;;;;;6306881;22;20045;-80
2021/12/05 12:11:01;;;;;;;11.90;6.88;;;5.00;99.90;;;;;;6304687;22;20065;-80
2021/12/05 12:13:47;;;;;;;16.67;8.15;;;5.00;99.90;;;;;;6307083;22;20057;-80
2021/12/05 12:16:33;;;;;;;12.40;6.82;;;5.00;99.90;;;;;;6307091;22;20018;-81
2021/12/05 12:19:21;;;;;;;13.98;6.55;;;5.00;99.90;;;;;;6308619;22;20030;-80
2021/12/05 12:22:07;;;;;;;14.43;7.07;;;5.00;99.90;;;;;;6307250;22;20542;-81
2021/12/05 12:24:56;;;;;;;14.33;6.77;;;5.00;99.90;;;;;;6306586;22;20093;-81
2021/12/05 12:27:44;;;;;;;13.70;7.00;;;5.00;99.90;;;;;;6307885;22;20108;-82
2021/12/05 12:30:32;;;;;;;14.45;7.00;;;5.30;99.90;;;;;;6263894;22;20018;-80
2021/12/05 12:33:30;;;;;;;12.80;7.30;;;5.10;99.90;;;;;;6307245;22;20037;-81
2021/12/05 12:36:15;;;;;;;12.70;6.38;;;5.10;99.90;;;;;;6308228;22;20029;-81
2021/12/05 12:39:03;;;;;;;15.60;7.18;;;5.10;99.90;;;;;;6307663;22;20021;-81
2021/12/05 12:42:02;;;;;;;14.65;7.43;;;5.30;99.90;;;;;;6306623;22;20018;-80
2021/12/05 12:45:09;;;;;;;13.20;6.82;;;5.20;99.90;;;;;;6307778;22;20460;-81
2021/12/05 12:47:59;;;;;;;14.77;7.10;;;5.30;99.90;;;;;;6307640;22;20014;-80
2021/12/05 12:50:52;;;;;;;14.90;6.13;;;5.40;99.90;;;;;;6306452;22;20014;-81
2021/12/05 12:53:39;;;;;;;14.32;6.65;;;5.50;99.90;;;;;;6306737;22;20023;-80
2021/12/05 12:56:24;;;;;;;14.25;6.80;;;5.60;99.90;;;;;;6308299;22;20014;-81
2021/12/05 12:59:18;;;;;;;18.70;7.10;;;5.50;99.90;;;;;;6285340;22;20038;-80
2021/12/05 13:10:24;;;;;;;11.98;7.00;;;5.70;99.90;;;;;;6307858;22;20349;-81
2021/12/05 13:13:16;;;;;;;12.73;6.28;;;5.80;99.90;;;;;;6307725;22;20018;-80
2021/12/05 13:16:36;;;;;;;12.63;6.32;;;5.80;99.90;;;;;;6306062;22;20064;-80
2021/12/05 13:19:30;;;;;;;12.77;7.43;;;5.90;99.90;;;;;;6306608;22;20460;-80
2021/12/05 13:22:14;;;;;;;12.93;7.07;;;5.90;99.90;;;;;;6307852;22;20048;-80
2021/12/05 13:25:07;;;;;;;13.77;6.32;;;5.90;99.90;;;;;;6283825;22;20467;-81
2021/12/05 13:27:51;;;;;;;13.75;6.50;;;5.90;99.90;;;;;;6307286;22;20030;-81
2021/12/05 13:30:36;;;;;;;16.95;6.80;;;5.80;99.90;;;;;;6306575;22;20448;-80
2021/12/05 13:33:28;;;;;;;12.45;6.07;;;5.80;99.90;;;;;;6307668;22;20018;-80
2021/12/05 13:36:34;;;;;;;11.65;6.75;;;5.80;99.90;;;;;;6307647;22;20072;-80
2021/12/05 13:39:52;;;;;;;13.23;6.65;;;5.70;99.90;;;;;;6306573;22;20053;-80
2021/12/05 13:42:42;;;;;;;13.55;6.50;;;5.70;99.90;;;;;;6306523;22;20057;-81
2021/12/05 13:45:26;;;;;;;12.90;7.28;;;5.60;99.90;;;;;;6306399;22;20045;-83
2021/12/05 13:48:10;;;;;;;;;;;5.70;99.90;;;;;;6307624;22;20014;-82
2021/12/05 13:51:04;;;;;;;10.07;6.68;;;5.60;99.90;;;;;;6305830;22;19980;-80
2021/12/05 13:53:51;;;;;;;12.57;7.00;;;5.50;99.90;;;;;;6253522;22;20457;-85
2021/12/05 13:56:35;;;;;;;21.92;8.88;;;5.50;99.90;;;;;;6277362;22;20449;-80
2021/12/05 13:59:25;;;;;;;14.40;8.38;;;5.80;99.90;;;;;;6253640;22;20034;-81
2021/12/05 14:02:11;;;;;;;18.60;8.55;;;5.40;99.90;;;;;;6252820;22;20035;-81
2021/12/05 14:04:56;;;;;;;18.27;8.25;;;5.40;99.90;;;;;;6210491;22;20030;-81
2021/12/05 14:07:40;;;;;;;19.17;9.27;;;5.40;99.90;;;;;;6276572;22;20445;-81
2021/12/05 14:10:24;;;;;;;12.80;8.05;;;5.40;99.90;;;;;;6231834;22;20019;-81
2021/12/05 14:13:10;;;;;;;15.52;7.13;;;5.40;99.90;;;;;;6211712;22;20046;-82
2021/12/05 14:15:57;;;;;;;13.45;8.43;;;5.50;99.90;;;;;;6253048;22;20460;-82
2021/12/05 14:18:42;;;;;;;11.90;6.97;;;5.60;99.90;;;;;;6253162;22;20022;-81
2021/12/05 14:21:27;;;;;;;20.13;7.50;;;5.40;99.90;;;;;;6275443;22;20069;-81
2021/12/05 14:24:13;;;;;;;13.75;8.07;;;5.50;99.90;;;;;;6231180;22;20069;-81
2021/12/05 14:27:00;;;;;;;14.57;7.93;;;5.40;99.90;;;;;;6252130;22;20038;-81
2021/12/05 14:29:47;;;;;;;16.45;8.40;;;5.40;99.90;;;;;;6276022;22;20065;-80
2021/12/05 14:32:34;;;;;;;17.45;8.30;;;5.40;99.90;;;;;;6253403;22;20483;-80
2021/12/05 14:35:22;;;;;;;16.58;8.48;;;5.40;99.90;;;;;;6253283;22;20440;-81
2021/12/05 14:38:08;;;;;;;13.02;8.10;;;5.40;99.90;;;;;;6252366;22;20091;-82
2021/12/05 14:40:52;;;;;;;14.73;7.78;;;5.70;99.90;;;;;;6253093;22;20042;-84
2021/12/05 14:43:37;;;;;;;17.45;8.25;;;5.40;99.90;;;;;;6252900;22;20018;-82
2021/12/05 14:46:21;;;;;;;14.75;7.45;;;5.40;99.90;;;;;;6275702;22;20333;-82
2021/12/05 14:49:05;;;;;;;17.73;8.32;;;5.40;99.90;;;;;;6209862;22;20030;-82
2021/12/05 14:51:51;;;;;;;20.45;10.13;;;5.40;99.90;;;;;;6266316;22;20030;-81
2021/12/05 14:54:38;;;;;;;19.38;11.68;;;5.40;99.90;;;;;;6305716;22;20137;-82
2021/12/05 14:57:26;;;;;;;23.63;10.48;;;5.40;99.90;;;;;;6305892;22;20014;-81
2021/12/05 15:00:13;;;;;;;19.25;11.85;;;5.40;99.90;;;;;;6304958;22;20018;-82
2021/12/05 15:03:02;;;;;;;18.40;9.50;;;5.40;99.90;;;;;;6305319;22;20036;-86
2021/12/05 15:05:51;;;;;;;17.20;9.35;;;5.40;99.90;;;;;;6305404;22;20036;-82
2021/12/05 15:08:36;;;;;;;17.77;8.77;;;5.30;99.90;;;;;;6304943;22;20040;-82
2021/12/05 15:11:20;;;;;;;16.60;9.73;;;5.80;99.90;;;;;;6304984;22;20018;-82
2021/12/05 15:14:05;;;;;;;;;;;5.40;99.90;;;;;;6306880;22;20030;-82
2021/12/05 15:17:01;;;;;;;17.23;8.65;;;5.30;99.90;;;;;;6305429;22;19914;-82
2021/12/05 15:19:49;;;;;;;18.73;9.63;;;5.20;99.90;;;;;;6305609;22;20478;-81
2021/12/05 15:22:34;;;;;;;17.42;9.73;;;5.20;99.90;;;;;;6305777;22;20121;-82
2021/12/05 15:25:22;;;;;;;21.98;9.85;;;5.30;99.90;;;;;;6304952;22;20021;-81
2021/12/05 15:28:07;;;;;;;16.15;8.98;;;5.70;99.90;;;;;;6306264;22;20395;-81
2021/12/05 15:30:52;;;;;;;15.60;9.68;;;5.80;99.90;;;;;;6307213;22;20013;-81
2021/12/05 15:33:37;;;;;;;16.83;9.77;;;5.10;99.90;;;;;;6305422;22;20065;-81
2021/12/05 15:36:30;;;;;;;33.55;17.70;;;5.20;99.90;;;;;;6282930;22;20038;-81
2021/12/05 15:39:21;;;;;;;30.63;17.25;;;5.10;99.90;;;;;;6304728;22;20065;-81
2021/12/05 15:42:17;;;;;;;18.25;11.27;;;5.10;99.90;;;;;;6304016;22;20014;-82
2021/12/05 15:45:08;;;;;;;22.02;10.18;;;5.10;99.90;;;;;;6305325;22;20010;-85
2021/12/05 15:47:53;;;;;;;16.55;10.07;;;5.10;99.90;;;;;;6306897;22;20019;-83
2021/12/05 15:50:39;;;;;;;19.70;10.88;;;5.10;99.90;;;;;;6307604;22;20014;-82
2021/12/05 15:53:25;;;;;;;25.67;11.40;;;5.20;99.90;;;;;;6308090;22;20026;-81
2021/12/05 15:56:13;;;;;;;24.02;12.10;;;5.10;99.90;;;;;;6306796;22;20185;-82
2021/12/05 15:59:01;;;;;;;20.50;11.60;;;5.10;99.90;;;;;;6308434;22;20015;-82
2021/12/05 16:01:47;;;;;;;21.30;12.50;;;5.00;99.90;;;;;;6286172;22;20018;-82
2021/12/05 16:04:31;;;;;;;21.45;10.57;;;5.00;99.90;;;;;;6307124;22;20112;-83
2021/12/05 16:07:16;;;;;;;;;;;5.00;99.90;;;;;;6303637;22;20349;-82
2021/12/05 16:10:22;;;;;;;22.48;10.82;;;5.00;99.90;;;;;;6306558;22;19964;-82
2021/12/05 16:13:21;;;;;;;17.48;9.80;;;5.00;99.90;;;;;;6307661;22;20046;-85
2021/12/05 16:16:15;;;;;;;20.38;10.13;;;5.00;99.90;;;;;;6306264;22;20010;-86
2021/12/05 16:19:01;;;;;;;21.45;10.57;;;5.00;99.90;;;;;;6308114;22;20402;-83
2021/12/05 16:21:46;;;;;;;54.70;35.08;;;4.90;99.90;;;;;;6308605;22;20014;-82
2021/12/05 16:24:30;;;;;;;;;;;4.90;99.90;;;;;;6307094;22;20041;-83
2021/12/05 16:27:15;;;;;;;22.58;12.95;;;4.90;99.90;;;;;;6307869;22;19913;-83
2021/12/05 16:30:00;;;;;;;21.73;11.70;;;4.90;99.90;;;;;;6307202;22;20018;-83
2021/12/05 16:32:44;;;;;;;20.98;10.98;;;4.90;99.90;;;;;;6306936;22;20401;-83
2021/12/05 16:35:32;;;;;;;20.60;10.55;;;4.80;99.90;;;;;;6284642;22;20018;-83
2021/12/05 16:38:39;;;;;;;22.90;12.18;;;5.50;99.90;;;;;;6307702;22;20040;-83
2021/12/05 16:41:28;;;;;;;23.83;11.15;;;4.90;99.90;;;;;;6306472;22;20341;-83
2021/12/05 16:44:20;;;;;;;20.27;11.63;;;4.80;99.90;;;;;;6306470;22;20010;-83
2021/12/05 16:47:14;;;;;;;24.95;11.95;;;4.80;99.90;;;;;;6306859;22;20014;-83
2021/12/05 16:50:00;;;;;;;23.42;12.35;;;4.90;99.90;;;;;;6308143;22;20030;-83
2021/12/05 16:52:50;;;;;;;19.67;11.55;;;4.80;99.90;;;;;;6285141;22;20026;-83
2021/12/05 16:55:39;;;;;;;29.98;14.13;;;5.00;99.90;;;;;;6307485;22;20018;-82
2021/12/05 16:58:24;;;;;;;24.88;14.23;;;4.90;99.90;;;;;;6305671;22;20022;-82
2021/12/05 17:01:15;;;;;;;29.73;14.07;;;4.80;99.90;;;;;;6306795;22;20455;-81
2021/12/05 17:03:59;;;;;;;36.22;16.27;;;4.80;99.90;;;;;;6306357;22;20014;-82
2021/12/05 17:06:53;;;;;;;70.20;32.50;;;4.80;99.90;;;;;;6306529;22;20349;-82
2021/12/05 17:09:38;;;;;;;36.97;19.20;;;4.80;99.90;;;;;;6306176;22;20034;-82
2021/12/05 17:12:32;;;;;;;35.63;16.33;;;5.10;99.90;;;;;;6307198;22;20021;-82
2021/12/05 17:15:29;;;;;;;28.55;13.95;;;4.80;99.90;;;;;;6307302;22;20010;-86
2021/12/05 17:18:22;;;;;;;29.88;15.68;;;4.80;99.90;;;;;;6307547;22;20405;-82
2021/12/05 17:21:14;;;;;;;29.23;16.05;;;4.80;99.90;;;;;;6308033;22;20054;-81
2021/12/05 17:24:40;;;;;;;26.77;15.27;;;4.90;99.90;;;;;;6308055;22;20018;-81
2021/12/05 17:27:25;;;;;;;28.20;16.65;;;4.80;99.90;;;;;;6182247;23;20082;-81
2021/12/05 17:30:10;;;;;;;33.53;19.50;;;4.80;99.90;;;;;;6137578;23;20668;-82
2021/12/05 17:32:54;;;;;;;35.67;19.75;;;4.80;99.90;;;;;;6280474;22;20057;-80
2021/12/05 17:35:38;;;;;;;38.45;22.10;;;4.80;99.90;;;;;;6304244;22;20034;-80
2021/12/05 17:38:35;;;;;;;;;;;4.80;99.90;;;;;;6282897;22;20067;-81
2021/12/05 17:41:21;;;;;;;44.10;25.65;;;4.70;99.90;;;;;;6305607;22;19913;-82
2021/12/05 17:44:06;;;;;;;31.10;18.45;;;5.10;99.90;;;;;;6306374;22;20014;-81
2021/12/05 17:46:53;;;;;;;33.97;16.65;;;4.80;99.90;;;;;;6282878;22;20018;-81
2021/12/05 17:49:45;;;;;;;30.65;18.73;;;4.80;99.90;;;;;;6305598;22;20029;-80
2021/12/05 17:52:31;;;;;;;37.92;20.00;;;4.70;99.90;;;;;;6305144;22;20022;-81
2021/12/05 17:55:22;;;;;;;29.15;18.77;;;5.30;99.90;;;;;;6304679;22;20019;-81
2021/12/05 17:58:20;;;;;;;32.20;19.38;;;5.20;99.90;;;;;;6283873;22;20046;-81
2021/12/05 18:04:08;;;;;;;27.40;14.75;;;4.70;99.90;;;;;;6305434;22;20488;-82
2021/12/05 18:06:53;;;;;;;29.08;18.02;;;4.60;99.90;;;;;;6282455;22;20440;-84
2021/12/05 18:09:39;;;;;;;34.55;19.45;;;4.70;99.90;;;;;;6304552;22;20014;-83
2021/12/05 18:12:33;;;;;;;32.35;19.08;;;4.70;99.90;;;;;;6303500;22;20639;-85
2021/12/05 18:15:25;;;;;;;29.83;18.60;;;4.60;99.90;;;;;;6305317;22;20014;-82
2021/12/05 18:18:09;;;;;;;30.95;19.65;;;4.60;99.90;;;;;;6303443;22;20057;-82
2021/12/05 18:20:56;;;;;;;36.30;19.10;;;5.10;99.90;;;;;;6303748;22;20106;-82
2021/12/05 18:23:41;;;;;;;32.08;18.77;;;4.60;99.90;;;;;;6304464;22;20463;-82
2021/12/05 18:26:26;;;;;;;30.02;18.70;;;4.60;99.90;;;;;;6281452;22;20456;-84
2021/12/05 18:29:13;;;;;;;31.15;17.77;;;4.60;99.90;;;;;;6281865;22;20065;-82
2021/12/05 18:31:57;;;;;;;35.33;17.98;;;5.90;99.90;;;;;;6303631;22;20068;-81
2021/12/05 18:34:43;;;;;;;31.95;19.10;;;4.50;99.90;;;;;;6302797;22;20494;-81
2021/12/05 18:37:27;;;;;;;31.30;17.80;;;4.50;99.90;;;;;;6303052;22;20102;-85
2021/12/05 18:40:13;;;;;;;29.97;16.97;;;4.50;99.90;;;;;;6303513;22;20045;-81
2021/12/05 18:42:58;;;;;;;32.17;18.67;;;4.50;99.90;;;;;;6303479;22;20018;-82
2021/12/05 18:45:43;;;;;;;29.65;17.48;;;4.50;99.90;;;;;;6303885;22;20084;-82
2021/12/05 18:48:28;;;;;;;30.35;17.50;;;4.50;99.90;;;;;;6303216;22;20456;-83
2021/12/05 18:51:15;;;;;;;26.80;16.65;;;4.70;99.90;;;;;;6303416;22;20018;-82
2021/12/05 18:54:00;;;;;;;30.40;16.50;;;4.40;99.90;;;;;;6303058;22;20329;-83
2021/12/05 18:56:46;;;;;;;32.08;17.25;;;5.70;99.90;;;;;;6301928;22;20014;-83
2021/12/05 18:59:32;;;;;;;28.30;16.98;;;4.40;99.90;;;;;;6303831;22;20094;-84
2021/12/05 19:06:09;;;;;;;30.10;18.98;;;4.30;99.90;;;;;;6303679;22;20049;-82
2021/12/05 19:08:37;;;;;;;29.77;17.90;;;4.60;99.90;;;;;;6303826;22;20073;-83
2021/12/05 19:14:31;;;;;;;33.23;19.43;;;4.10;99.90;;;;;;6303410;22;20019;-83
2021/12/05 19:17:19;;;;;;;35.87;19.80;;;4.50;99.90;;;;;;6300319;22;20459;-83
2021/12/05 19:20:10;;;;;;;28.43;17.13;;;4.10;99.90;;;;;;6304333;22;20467;-83
2021/12/05 19:22:57;;;;;;;31.50;16.05;;;4.00;99.90;;;;;;6303395;22;20057;-83
2021/12/05 19:25:42;;;;;;;28.63;16.50;;;4.10;99.90;;;;;;6304045;22;20064;-84
2021/12/05 19:28:28;;;;;;;27.00;16.47;;;4.00;99.90;;;;;;6304323;22;20520;-84
2021/12/05 19:31:13;;;;;;;26.33;15.80;;;4.10;99.90;;;;;;6303220;22;20547;-84
2021/12/05 19:33:58;;;;;;;27.75;18.25;;;3.80;99.90;;;;;;6302525;22;20329;-83
2021/12/05 19:36:42;;;;;;;29.23;18.77;;;4.20;99.90;;;;;;6280999;22;20460;-83
2021/12/05 19:39:29;;;;;;;29.07;16.13;;;3.90;99.90;;;;;;6304589;22;20014;-83
2021/12/05 19:42:15;;;;;;;30.70;17.30;;;3.70;99.90;;;;;;6304416;22;20069;-82
2021/12/05 19:44:59;;;;;;;29.23;16.73;;;4.50;99.90;;;;;;6302655;22;20018;-85
2021/12/05 19:47:44;;;;;;;30.67;16.93;;;3.70;99.90;;;;;;6280734;22;20019;-83
2021/12/05 19:50:31;;;;;;;32.63;17.80;;;3.60;99.90;;;;;;6304286;22;20015;-83
2021/12/05 19:53:17;;;;;;;28.73;16.67;;;3.70;99.90;;;;;;6304100;22;20018;-82
2021/12/05 19:56:01;;;;;;;28.63;17.53;;;3.60;99.90;;;;;;6304201;22;20022;-83
2021/12/05 19:58:46;;;;;;;30.98;17.52;;;4.60;99.90;;;;;;6302172;22;20049;-83
2021/12/05 20:01:31;;;;;;;35.53;19.27;;;4.30;99.90;;;;;;6303080;22;20022;-82
2021/12/05 20:04:15;;;;;;;31.03;18.67;;;3.60;99.90;;;;;;6303204;22;20017;-83
2021/12/05 20:06:59;;;;;;;34.40;20.27;;;3.50;99.90;;;;;;6280847;22;20041;-84
2021/12/05 20:09:43;;;;;;;;;;;3.50;99.90;;;;;;6280930;22;20072;-83
2021/12/05 20:12:29;;;;;;;42.22;23.83;;;3.50;99.90;;;;;;6281206;22;19982;-83
2021/12/05 20:15:14;;;;;;;36.63;23.67;;;3.50;99.90;;;;;;6304429;22;20353;-84
2021/12/05 20:18:00;;;;;;;36.93;23.03;;;3.50;99.90;;;;;;6302396;22;20026;-83
2021/12/05 20:20:47;;;;;;;34.70;21.40;;;3.40;99.90;;;;;;6302631;22;20022;-83
2021/12/05 20:23:31;;;;;;;30.97;19.17;;;4.30;99.90;;;;;;6304302;22;20423;-83